sensor_id;sensor_type;location;lat;lon;timestamp;P1;durP1;ratioP1;P2;durP2;ratioP2
23304;SDS011;11821;51.456;8.844;2023-04-15T00:00:15;5.82;;;5.03;;
23304;SDS011;11821;51.456;8.844;2023-04-15T00:02:44;5.45;;;4.25;;
23304;SDS011;11821;51.456;8.844;2023-04-15T00:05:10;5.95;;;5.35;;
23304;SDS011;11821;51.456;8.844;2023-04-15T00:07:37;6.30;;;5.70;;
23304;SDS011;11821;51.456;8.844;2023-04-15T00:10:05;8.73;;;5.05;;
23304;SDS011;11821;51.456;8.844;2023-04-15T00:12:31;8.10;;;4.90;;
23304;SDS011;11821;51.456;8.844;2023-04-15T00:14:58;6.47;;;4.65;;
23304;SDS011;11821;51.456;8.844;2023-04-15T00:17:24;10.10;;;5.57;;
23304;SDS011;11821;51.456;8.844;2023-04-15T00:19:51;6.35;;;4.93;;
23304;SDS011;11821;51.456;8.844;2023-04-15T00:22:17;6.82;;;4.63;;
23304;SDS011;11821;51.456;8.844;2023-04-15T00:24:44;8.50;;;5.70;;
23304;SDS011;11821;51.456;8.844;2023-04-15T00:27:10;7.55;;;5.70;;
23304;SDS011;11821;51.456;8.844;2023-04-15T00:29:37;6.75;;;5.97;;
23304;SDS011;11821;51.456;8.844;2023-04-15T00:32:04;5.53;;;4.93;;
23304;SDS011;11821;51.456;8.844;2023-04-15T00:34:31;5.70;;;4.78;;
23304;SDS011;11821;51.456;8.844;2023-04-15T00:36:58;8.07;;;5.60;;
23304;SDS011;11821;51.456;8.844;2023-04-15T00:39:25;7.50;;;5.75;;
23304;SDS011;11821;51.456;8.844;2023-04-15T00:41:52;8.98;;;5.63;;
23304;SDS011;11821;51.456;8.844;2023-04-15T00:44:20;9.68;;;5.85;;
23304;SDS011;11821;51.456;8.844;2023-04-15T00:46:47;7.25;;;5.47;;
23304;SDS011;11821;51.456;8.844;2023-04-15T00:49:14;9.30;;;5.88;;
23304;SDS011;11821;51.456;8.844;2023-04-15T00:51:42;5.97;;;5.18;;
23304;SDS011;11821;51.456;8.844;2023-04-15T00:54:09;9.60;;;5.50;;
23304;SDS011;11821;51.456;8.844;2023-04-15T00:56:37;7.78;;;5.43;;
23304;SDS011;11821;51.456;8.844;2023-04-15T00:59:04;7.97;;;6.43;;
23304;SDS011;11821;51.456;8.844;2023-04-15T01:01:32;7.75;;;5.50;;
23304;SDS011;11821;51.456;8.844;2023-04-15T01:04:00;6.05;;;4.72;;
23304;SDS011;11821;51.456;8.844;2023-04-15T01:06:26;6.38;;;5.45;;
23304;SDS011;11821;51.456;8.844;2023-04-15T01:08:54;6.63;;;5.90;;
23304;SDS011;11821;51.456;8.844;2023-04-15T01:11:21;8.98;;;6.38;;
23304;SDS011;11821;51.456;8.844;2023-04-15T01:13:49;7.65;;;6.03;;
23304;SDS011;11821;51.456;8.844;2023-04-15T01:16:17;7.28;;;4.85;;
23304;SDS011;11821;51.456;8.844;2023-04-15T01:18:43;8.45;;;5.60;;
23304;SDS011;11821;51.456;8.844;2023-04-15T01:21:11;8.57;;;6.18;;
23304;SDS011;11821;51.456;8.844;2023-04-15T01:23:39;7.97;;;6.05;;
23304;SDS011;11821;51.456;8.844;2023-04-15T01:26:06;10.52;;;6.30;;
23304;SDS011;11821;51.456;8.844;2023-04-15T01:28:36;9.18;;;5.28;;
23304;SDS011;11821;51.456;8.844;2023-04-15T01:31:04;7.50;;;6.05;;
23304;SDS011;11821;51.456;8.844;2023-04-15T01:33:35;7.93;;;6.38;;
23304;SDS011;11821;51.456;8.844;2023-04-15T01:36:03;7.85;;;5.40;;
23304;SDS011;11821;51.456;8.844;2023-04-15T01:38:29;10.95;;;5.95;;
23304;SDS011;11821;51.456;8.844;2023-04-15T01:40:57;6.82;;;5.65;;
23304;SDS011;11821;51.456;8.844;2023-04-15T01:43:24;8.80;;;6.03;;
23304;SDS011;11821;51.456;8.844;2023-04-15T01:45:51;7.13;;;5.88;;
23304;SDS011;11821;51.456;8.844;2023-04-15T01:48:18;10.15;;;5.60;;
23304;SDS011;11821;51.456;8.844;2023-04-15T01:50:44;7.88;;;6.28;;
23304;SDS011;11821;51.456;8.844;2023-04-15T01:53:11;5.70;;;4.72;;
23304;SDS011;11821;51.456;8.844;2023-04-15T01:55:37;5.53;;;5.00;;
23304;SDS011;11821;51.456;8.844;2023-04-15T01:58:04;6.32;;;5.53;;
23304;SDS011;11821;51.456;8.844;2023-04-15T02:00:32;9.70;;;5.85;;
23304;SDS011;11821;51.456;8.844;2023-04-15T02:02:58;9.15;;;6.38;;
23304;SDS011;11821;51.456;8.844;2023-04-15T02:05:25;12.00;;;6.95;;
23304;SDS011;11821;51.456;8.844;2023-04-15T02:07:52;9.60;;;6.97;;
23304;SDS011;11821;51.456;8.844;2023-04-15T02:10:22;10.30;;;6.28;;
23304;SDS011;11821;51.456;8.844;2023-04-15T02:12:52;8.13;;;5.65;;
23304;SDS011;11821;51.456;8.844;2023-04-15T02:15:18;9.43;;;6.72;;
23304;SDS011;11821;51.456;8.844;2023-04-15T02:17:45;6.72;;;6.05;;
23304;SDS011;11821;51.456;8.844;2023-04-15T02:20:15;9.45;;;6.93;;
23304;SDS011;11821;51.456;8.844;2023-04-15T02:22:42;10.48;;;6.80;;
23304;SDS011;11821;51.456;8.844;2023-04-15T02:25:09;6.97;;;5.75;;
23304;SDS011;11821;51.456;8.844;2023-04-15T02:27:36;12.68;;;6.63;;
23304;SDS011;11821;51.456;8.844;2023-04-15T02:30:02;9.50;;;6.80;;
23304;SDS011;11821;51.456;8.844;2023-04-15T02:32:29;8.27;;;6.35;;
23304;SDS011;11821;51.456;8.844;2023-04-15T02:34:56;9.82;;;7.32;;
23304;SDS011;11821;51.456;8.844;2023-04-15T02:37:27;10.15;;;6.53;;
23304;SDS011;11821;51.456;8.844;2023-04-15T02:39:56;11.73;;;6.78;;
23304;SDS011;11821;51.456;8.844;2023-04-15T02:42:23;10.18;;;5.63;;
23304;SDS011;11821;51.456;8.844;2023-04-15T02:44:53;7.97;;;6.35;;
23304;SDS011;11821;51.456;8.844;2023-04-15T02:47:22;6.57;;;5.97;;
23304;SDS011;11821;51.456;8.844;2023-04-15T02:49:48;12.75;;;6.97;;
23304;SDS011;11821;51.456;8.844;2023-04-15T02:52:15;8.65;;;6.28;;
23304;SDS011;11821;51.456;8.844;2023-04-15T02:54:42;9.52;;;6.25;;
23304;SDS011;11821;51.456;8.844;2023-04-15T02:57:08;13.13;;;7.85;;
23304;SDS011;11821;51.456;8.844;2023-04-15T02:59:36;13.23;;;7.25;;
23304;SDS011;11821;51.456;8.844;2023-04-15T03:02:03;10.07;;;7.50;;
23304;SDS011;11821;51.456;8.844;2023-04-15T03:04:32;6.57;;;5.97;;
23304;SDS011;11821;51.456;8.844;2023-04-15T03:07:00;8.13;;;6.03;;
23304;SDS011;11821;51.456;8.844;2023-04-15T03:09:27;8.98;;;7.15;;
23304;SDS011;11821;51.456;8.844;2023-04-15T03:11:54;7.03;;;6.25;;
23304;SDS011;11821;51.456;8.844;2023-04-15T03:14:22;11.07;;;7.28;;
23304;SDS011;11821;51.456;8.844;2023-04-15T03:16:49;7.25;;;5.97;;
23304;SDS011;11821;51.456;8.844;2023-04-15T03:19:17;7.15;;;6.07;;
23304;SDS011;11821;51.456;8.844;2023-04-15T03:21:43;10.82;;;7.20;;
23304;SDS011;11821;51.456;8.844;2023-04-15T03:24:10;12.80;;;7.10;;
23304;SDS011;11821;51.456;8.844;2023-04-15T03:26:36;7.18;;;6.35;;
23304;SDS011;11821;51.456;8.844;2023-04-15T03:29:09;10.25;;;7.28;;
23304;SDS011;11821;51.456;8.844;2023-04-15T03:31:36;10.40;;;6.78;;
23304;SDS011;11821;51.456;8.844;2023-04-15T03:34:03;9.25;;;6.85;;
23304;SDS011;11821;51.456;8.844;2023-04-15T03:36:29;8.02;;;6.97;;
23304;SDS011;11821;51.456;8.844;2023-04-15T03:38:58;8.00;;;6.40;;
23304;SDS011;11821;51.456;8.844;2023-04-15T03:41:26;11.07;;;7.38;;
23304;SDS011;11821;51.456;8.844;2023-04-15T03:43:53;9.23;;;7.28;;
23304;SDS011;11821;51.456;8.844;2023-04-15T03:46:20;13.20;;;7.40;;
23304;SDS011;11821;51.456;8.844;2023-04-15T03:48:46;8.55;;;6.97;;
23304;SDS011;11821;51.456;8.844;2023-04-15T03:51:13;9.55;;;8.02;;
23304;SDS011;11821;51.456;8.844;2023-04-15T03:53:40;8.88;;;8.00;;
23304;SDS011;11821;51.456;8.844;2023-04-15T03:56:06;13.48;;;7.20;;
23304;SDS011;11821;51.456;8.844;2023-04-15T03:58:33;8.45;;;7.53;;
23304;SDS011;11821;51.456;8.844;2023-04-15T04:00:59;9.15;;;7.15;;
23304;SDS011;11821;51.456;8.844;2023-04-15T04:03:26;8.52;;;7.35;;
23304;SDS011;11821;51.456;8.844;2023-04-15T04:05:53;8.80;;;7.20;;
23304;SDS011;11821;51.456;8.844;2023-04-15T04:08:19;9.00;;;7.55;;
23304;SDS011;11821;51.456;8.844;2023-04-15T04:10:46;8.35;;;7.32;;
23304;SDS011;11821;51.456;8.844;2023-04-15T04:13:13;9.82;;;7.93;;
23304;SDS011;11821;51.456;8.844;2023-04-15T04:15:40;8.75;;;7.63;;
23304;SDS011;11821;51.456;8.844;2023-04-15T04:18:06;9.13;;;7.95;;
23304;SDS011;11821;51.456;8.844;2023-04-15T04:20:33;9.77;;;8.35;;
23304;SDS011;11821;51.456;8.844;2023-04-15T04:22:59;10.07;;;7.80;;
23304;SDS011;11821;51.456;8.844;2023-04-15T04:25:26;11.65;;;8.73;;
23304;SDS011;11821;51.456;8.844;2023-04-15T04:27:52;10.38;;;7.05;;
23304;SDS011;11821;51.456;8.844;2023-04-15T04:30:19;11.50;;;8.80;;
23304;SDS011;11821;51.456;8.844;2023-04-15T04:32:46;9.82;;;7.55;;
23304;SDS011;11821;51.456;8.844;2023-04-15T04:35:12;9.70;;;7.82;;
23304;SDS011;11821;51.456;8.844;2023-04-15T04:37:39;10.88;;;7.93;;
23304;SDS011;11821;51.456;8.844;2023-04-15T04:40:05;9.63;;;6.93;;
23304;SDS011;11821;51.456;8.844;2023-04-15T04:42:32;11.80;;;8.13;;
23304;SDS011;11821;51.456;8.844;2023-04-15T04:44:59;9.65;;;7.40;;
23304;SDS011;11821;51.456;8.844;2023-04-15T04:47:25;8.88;;;7.28;;
23304;SDS011;11821;51.456;8.844;2023-04-15T04:49:52;8.60;;;6.82;;
23304;SDS011;11821;51.456;8.844;2023-04-15T04:52:18;7.75;;;6.78;;
23304;SDS011;11821;51.456;8.844;2023-04-15T04:54:45;8.30;;;6.82;;
23304;SDS011;11821;51.456;8.844;2023-04-15T04:57:12;9.82;;;7.20;;
23304;SDS011;11821;51.456;8.844;2023-04-15T04:59:38;8.65;;;7.32;;
23304;SDS011;11821;51.456;8.844;2023-04-15T05:02:05;9.15;;;8.25;;
23304;SDS011;11821;51.456;8.844;2023-04-15T05:04:32;11.02;;;8.52;;
23304;SDS011;11821;51.456;8.844;2023-04-15T05:06:59;9.90;;;8.40;;
23304;SDS011;11821;51.456;8.844;2023-04-15T05:09:25;10.30;;;8.20;;
23304;SDS011;11821;51.456;8.844;2023-04-15T05:11:52;10.23;;;7.70;;
23304;SDS011;11821;51.456;8.844;2023-04-15T05:14:19;10.60;;;8.00;;
23304;SDS011;11821;51.456;8.844;2023-04-15T05:16:45;11.07;;;7.20;;
23304;SDS011;11821;51.456;8.844;2023-04-15T05:19:12;14.05;;;8.07;;
23304;SDS011;11821;51.456;8.844;2023-04-15T05:21:38;7.80;;;7.00;;
23304;SDS011;11821;51.456;8.844;2023-04-15T05:24:05;9.45;;;7.22;;
23304;SDS011;11821;51.456;8.844;2023-04-15T05:26:32;12.90;;;7.55;;
23304;SDS011;11821;51.456;8.844;2023-04-15T05:28:58;9.77;;;7.60;;
23304;SDS011;11821;51.456;8.844;2023-04-15T05:31:25;10.15;;;7.45;;
23304;SDS011;11821;51.456;8.844;2023-04-15T05:33:52;10.50;;;7.65;;
23304;SDS011;11821;51.456;8.844;2023-04-15T05:36:18;7.72;;;7.03;;
23304;SDS011;11821;51.456;8.844;2023-04-15T05:38:45;9.50;;;6.60;;
23304;SDS011;11821;51.456;8.844;2023-04-15T05:41:12;8.82;;;7.93;;
23304;SDS011;11821;51.456;8.844;2023-04-15T05:43:40;11.48;;;7.97;;
23304;SDS011;11821;51.456;8.844;2023-04-15T05:46:07;9.82;;;8.82;;
23304;SDS011;11821;51.456;8.844;2023-04-15T05:48:33;7.97;;;7.25;;
23304;SDS011;11821;51.456;8.844;2023-04-15T05:51:00;7.93;;;7.13;;
23304;SDS011;11821;51.456;8.844;2023-04-15T05:53:27;9.35;;;8.25;;
23304;SDS011;11821;51.456;8.844;2023-04-15T05:55:53;9.55;;;8.15;;
23304;SDS011;11821;51.456;8.844;2023-04-15T05:58:20;11.13;;;7.65;;
23304;SDS011;11821;51.456;8.844;2023-04-15T06:00:46;8.20;;;7.18;;
23304;SDS011;11821;51.456;8.844;2023-04-15T06:03:13;9.63;;;7.60;;
23304;SDS011;11821;51.456;8.844;2023-04-15T06:05:39;8.45;;;7.65;;
23304;SDS011;11821;51.456;8.844;2023-04-15T06:08:06;10.30;;;6.78;;
23304;SDS011;11821;51.456;8.844;2023-04-15T06:10:34;8.48;;;7.68;;
23304;SDS011;11821;51.456;8.844;2023-04-15T06:13:01;10.07;;;7.90;;
23304;SDS011;11821;51.456;8.844;2023-04-15T06:15:28;9.77;;;8.07;;
23304;SDS011;11821;51.456;8.844;2023-04-15T06:17:55;24.77;;;15.73;;
23304;SDS011;11821;51.456;8.844;2023-04-15T06:20:22;10.38;;;9.18;;
23304;SDS011;11821;51.456;8.844;2023-04-15T06:22:49;10.05;;;9.05;;
23304;SDS011;11821;51.456;8.844;2023-04-15T06:25:16;10.05;;;7.82;;
23304;SDS011;11821;51.456;8.844;2023-04-15T06:27:42;8.85;;;7.90;;
23304;SDS011;11821;51.456;8.844;2023-04-15T06:30:09;9.27;;;6.80;;
23304;SDS011;11821;51.456;8.844;2023-04-15T06:32:36;9.15;;;8.20;;
23304;SDS011;11821;51.456;8.844;2023-04-15T06:35:03;10.20;;;8.57;;
23304;SDS011;11821;51.456;8.844;2023-04-15T06:37:30;9.30;;;8.40;;
23304;SDS011;11821;51.456;8.844;2023-04-15T06:39:57;10.05;;;9.15;;
23304;SDS011;11821;51.456;8.844;2023-04-15T06:42:23;87.68;;;49.65;;
23304;SDS011;11821;51.456;8.844;2023-04-15T06:44:50;41.72;;;27.60;;
23304;SDS011;11821;51.456;8.844;2023-04-15T06:47:17;17.42;;;14.60;;
23304;SDS011;11821;51.456;8.844;2023-04-15T06:49:44;10.60;;;9.50;;
23304;SDS011;11821;51.456;8.844;2023-04-15T06:52:10;13.20;;;11.63;;
23304;SDS011;11821;51.456;8.844;2023-04-15T06:54:37;16.35;;;14.13;;
23304;SDS011;11821;51.456;8.844;2023-04-15T06:57:04;16.00;;;13.85;;
23304;SDS011;11821;51.456;8.844;2023-04-15T06:59:31;11.43;;;10.27;;
23304;SDS011;11821;51.456;8.844;2023-04-15T07:01:58;16.15;;;14.10;;
23304;SDS011;11821;51.456;8.844;2023-04-15T07:04:25;17.33;;;14.32;;
23304;SDS011;11821;51.456;8.844;2023-04-15T07:06:52;15.15;;;12.82;;
23304;SDS011;11821;51.456;8.844;2023-04-15T07:09:23;18.05;;;14.13;;
23304;SDS011;11821;51.456;8.844;2023-04-15T07:11:50;13.40;;;12.05;;
23304;SDS011;11821;51.456;8.844;2023-04-15T07:14:17;15.75;;;13.55;;
23304;SDS011;11821;51.456;8.844;2023-04-15T07:16:43;15.73;;;13.63;;
23304;SDS011;11821;51.456;8.844;2023-04-15T07:19:10;16.10;;;14.50;;
23304;SDS011;11821;51.456;8.844;2023-04-15T07:21:36;13.38;;;12.00;;
23304;SDS011;11821;51.456;8.844;2023-04-15T07:24:03;12.93;;;11.63;;
23304;SDS011;11821;51.456;8.844;2023-04-15T07:26:30;15.45;;;13.82;;
23304;SDS011;11821;51.456;8.844;2023-04-15T07:28:56;13.40;;;12.10;;
23304;SDS011;11821;51.456;8.844;2023-04-15T07:31:23;15.18;;;12.82;;
23304;SDS011;11821;51.456;8.844;2023-04-15T07:33:50;16.73;;;13.95;;
23304;SDS011;11821;51.456;8.844;2023-04-15T07:36:16;12.13;;;10.93;;
23304;SDS011;11821;51.456;8.844;2023-04-15T07:38:43;12.98;;;11.18;;
23304;SDS011;11821;51.456;8.844;2023-04-15T07:41:12;17.50;;;12.88;;
23304;SDS011;11821;51.456;8.844;2023-04-15T07:43:40;14.98;;;12.98;;
23304;SDS011;11821;51.456;8.844;2023-04-15T07:46:07;16.25;;;12.68;;
23304;SDS011;11821;51.456;8.844;2023-04-15T07:48:34;16.67;;;14.13;;
23304;SDS011;11821;51.456;8.844;2023-04-15T07:51:00;16.33;;;13.10;;
23304;SDS011;11821;51.456;8.844;2023-04-15T07:53:28;13.20;;;11.65;;
23304;SDS011;11821;51.456;8.844;2023-04-15T07:55:54;16.48;;;14.02;;
23304;SDS011;11821;51.456;8.844;2023-04-15T07:58:21;14.38;;;12.82;;
23304;SDS011;11821;51.456;8.844;2023-04-15T08:00:48;12.45;;;11.18;;
23304;SDS011;11821;51.456;8.844;2023-04-15T08:03:15;16.92;;;13.95;;
23304;SDS011;11821;51.456;8.844;2023-04-15T08:05:41;13.05;;;11.75;;
23304;SDS011;11821;51.456;8.844;2023-04-15T08:08:08;15.80;;;12.27;;
23304;SDS011;11821;51.456;8.844;2023-04-15T08:10:34;16.98;;;15.38;;
23304;SDS011;11821;51.456;8.844;2023-04-15T08:13:02;15.52;;;13.82;;
23304;SDS011;11821;51.456;8.844;2023-04-15T08:15:29;14.50;;;12.57;;
23304;SDS011;11821;51.456;8.844;2023-04-15T08:17:57;12.88;;;11.68;;
23304;SDS011;11821;51.456;8.844;2023-04-15T08:20:25;13.63;;;12.23;;
23304;SDS011;11821;51.456;8.844;2023-04-15T08:22:52;10.90;;;9.73;;
23304;SDS011;11821;51.456;8.844;2023-04-15T08:25:18;8.80;;;7.68;;
23304;SDS011;11821;51.456;8.844;2023-04-15T08:27:46;12.35;;;11.10;;
23304;SDS011;11821;51.456;8.844;2023-04-15T08:30:12;10.07;;;9.07;;
23304;SDS011;11821;51.456;8.844;2023-04-15T08:32:41;10.55;;;9.45;;
23304;SDS011;11821;51.456;8.844;2023-04-15T08:35:07;12.30;;;11.02;;
23304;SDS011;11821;51.456;8.844;2023-04-15T08:37:35;12.50;;;11.15;;
23304;SDS011;11821;51.456;8.844;2023-04-15T08:40:01;14.05;;;11.60;;
23304;SDS011;11821;51.456;8.844;2023-04-15T08:42:31;11.35;;;10.25;;
23304;SDS011;11821;51.456;8.844;2023-04-15T08:45:03;8.90;;;8.13;;
23304;SDS011;11821;51.456;8.844;2023-04-15T08:47:30;10.15;;;9.23;;
23304;SDS011;11821;51.456;8.844;2023-04-15T08:49:57;11.20;;;10.18;;
23304;SDS011;11821;51.456;8.844;2023-04-15T08:52:25;10.65;;;9.65;;
23304;SDS011;11821;51.456;8.844;2023-04-15T08:54:53;10.52;;;9.43;;
23304;SDS011;11821;51.456;8.844;2023-04-15T08:57:26;14.48;;;12.80;;
23304;SDS011;11821;51.456;8.844;2023-04-15T08:59:56;11.68;;;10.48;;
23304;SDS011;11821;51.456;8.844;2023-04-15T09:02:23;11.65;;;10.45;;
23304;SDS011;11821;51.456;8.844;2023-04-15T09:04:50;12.88;;;9.40;;
23304;SDS011;11821;51.456;8.844;2023-04-15T09:07:17;10.88;;;9.77;;
23304;SDS011;11821;51.456;8.844;2023-04-15T09:09:44;10.32;;;9.30;;
23304;SDS011;11821;51.456;8.844;2023-04-15T09:12:10;12.68;;;11.38;;
23304;SDS011;11821;51.456;8.844;2023-04-15T09:14:39;9.98;;;8.98;;
23304;SDS011;11821;51.456;8.844;2023-04-15T09:17:08;16.50;;;11.48;;
23304;SDS011;11821;51.456;8.844;2023-04-15T09:19:36;12.00;;;10.65;;
23304;SDS011;11821;51.456;8.844;2023-04-15T09:22:02;14.40;;;12.85;;
23304;SDS011;11821;51.456;8.844;2023-04-15T09:24:34;12.27;;;11.15;;
23304;SDS011;11821;51.456;8.844;2023-04-15T09:27:02;13.02;;;11.73;;
23304;SDS011;11821;51.456;8.844;2023-04-15T09:29:28;13.82;;;12.40;;
23304;SDS011;11821;51.456;8.844;2023-04-15T09:31:55;14.35;;;12.95;;
23304;SDS011;11821;51.456;8.844;2023-04-15T09:34:23;15.07;;;13.15;;
23304;SDS011;11821;51.456;8.844;2023-04-15T09:37:00;13.30;;;12.02;;
23304;SDS011;11821;51.456;8.844;2023-04-15T09:39:26;8.95;;;8.13;;
23304;SDS011;11821;51.456;8.844;2023-04-15T09:42:03;16.08;;;14.45;;
23304;SDS011;11821;51.456;8.844;2023-04-15T09:44:30;15.95;;;14.35;;
23304;SDS011;11821;51.456;8.844;2023-04-15T09:46:57;12.35;;;11.18;;
23304;SDS011;11821;51.456;8.844;2023-04-15T09:49:23;13.50;;;12.20;;
23304;SDS011;11821;51.456;8.844;2023-04-15T09:51:50;14.07;;;12.75;;
23304;SDS011;11821;51.456;8.844;2023-04-15T09:54:20;12.82;;;11.50;;
23304;SDS011;11821;51.456;8.844;2023-04-15T09:56:46;13.55;;;12.18;;
23304;SDS011;11821;51.456;8.844;2023-04-15T09:59:13;13.13;;;11.80;;
23304;SDS011;11821;51.456;8.844;2023-04-15T10:01:40;13.10;;;11.80;;
23304;SDS011;11821;51.456;8.844;2023-04-15T10:04:07;13.38;;;11.98;;
23304;SDS011;11821;51.456;8.844;2023-04-15T10:06:34;14.18;;;12.68;;
23304;SDS011;11821;51.456;8.844;2023-04-15T10:09:01;13.18;;;11.02;;
23304;SDS011;11821;51.456;8.844;2023-04-15T10:11:28;12.35;;;11.15;;
23304;SDS011;11821;51.456;8.844;2023-04-15T10:13:55;14.05;;;12.65;;
23304;SDS011;11821;51.456;8.844;2023-04-15T10:16:22;13.20;;;11.90;;
23304;SDS011;11821;51.456;8.844;2023-04-15T10:18:55;9.55;;;8.55;;
23304;SDS011;11821;51.456;8.844;2023-04-15T10:21:23;10.88;;;9.77;;
23304;SDS011;11821;51.456;8.844;2023-04-15T10:23:50;10.60;;;9.55;;
23304;SDS011;11821;51.456;8.844;2023-04-15T10:26:16;12.07;;;10.88;;
23304;SDS011;11821;51.456;8.844;2023-04-15T10:28:43;13.80;;;12.05;;
23304;SDS011;11821;51.456;8.844;2023-04-15T10:31:11;7.28;;;6.57;;
23304;SDS011;11821;51.456;8.844;2023-04-15T10:33:39;7.90;;;7.13;;
23304;SDS011;11821;51.456;8.844;2023-04-15T10:36:07;7.35;;;6.68;;
23304;SDS011;11821;51.456;8.844;2023-04-15T10:38:40;7.13;;;6.45;;
23304;SDS011;11821;51.456;8.844;2023-04-15T10:43:45;5.50;;;5.00;;
23304;SDS011;11821;51.456;8.844;2023-04-15T10:46:11;6.25;;;5.47;;
23304;SDS011;11821;51.456;8.844;2023-04-15T10:48:38;4.55;;;4.13;;
23304;SDS011;11821;51.456;8.844;2023-04-15T10:51:04;5.07;;;4.57;;
23304;SDS011;11821;51.456;8.844;2023-04-15T10:53:31;4.25;;;3.85;;
23304;SDS011;11821;51.456;8.844;2023-04-15T10:55:58;4.70;;;4.30;;
23304;SDS011;11821;51.456;8.844;2023-04-15T10:58:25;10.10;;;7.55;;
23304;SDS011;11821;51.456;8.844;2023-04-15T11:00:52;14.02;;;8.13;;
23304;SDS011;11821;51.456;8.844;2023-04-15T11:03:52;9.15;;;7.43;;
23304;SDS011;11821;51.456;8.844;2023-04-15T11:06:12;4.70;;;4.30;;
23304;SDS011;11821;51.456;8.844;2023-04-15T11:09:29;5.95;;;5.35;;
23304;SDS011;11821;51.456;8.844;2023-04-15T11:14:31;5.38;;;4.88;;
23304;SDS011;11821;51.456;8.844;2023-04-15T11:16:59;4.35;;;3.95;;
23304;SDS011;11821;51.456;8.844;2023-04-15T11:19:25;4.22;;;3.83;;
23304;SDS011;11821;51.456;8.844;2023-04-15T11:21:52;9.57;;;8.68;;
23304;SDS011;11821;51.456;8.844;2023-04-15T11:24:25;4.47;;;4.07;;
23304;SDS011;11821;51.456;8.844;2023-04-15T11:27:00;4.05;;;3.72;;
23304;SDS011;11821;51.456;8.844;2023-04-15T11:29:30;7.75;;;6.88;;
23304;SDS011;11821;51.456;8.844;2023-04-15T11:32:03;4.07;;;3.78;;
23304;SDS011;11821;51.456;8.844;2023-04-15T11:34:31;5.30;;;4.80;;
23304;SDS011;11821;51.456;8.844;2023-04-15T11:36:58;4.20;;;3.80;;
23304;SDS011;11821;51.456;8.844;2023-04-15T11:39:25;3.42;;;3.13;;
23304;SDS011;11821;51.456;8.844;2023-04-15T11:41:54;3.33;;;3.03;;
23304;SDS011;11821;51.456;8.844;2023-04-15T11:44:20;3.03;;;2.75;;
23304;SDS011;11821;51.456;8.844;2023-04-15T11:46:47;3.53;;;3.22;;
23304;SDS011;11821;51.456;8.844;2023-04-15T11:49:29;3.53;;;3.22;;
23304;SDS011;11821;51.456;8.844;2023-04-15T11:51:58;4.10;;;3.70;;
23304;SDS011;11821;51.456;8.844;2023-04-15T11:54:25;3.20;;;2.90;;
23304;SDS011;11821;51.456;8.844;2023-04-15T11:56:55;4.13;;;3.72;;
23304;SDS011;11821;51.456;8.844;2023-04-15T11:59:22;4.00;;;3.60;;
23304;SDS011;11821;51.456;8.844;2023-04-15T12:01:48;4.90;;;4.40;;
23304;SDS011;11821;51.456;8.844;2023-04-15T12:04:17;3.58;;;3.17;;
23304;SDS011;11821;51.456;8.844;2023-04-15T12:06:46;3.75;;;3.45;;
23304;SDS011;11821;51.456;8.844;2023-04-15T12:09:13;3.15;;;2.85;;
23304;SDS011;11821;51.456;8.844;2023-04-15T12:16:39;5.88;;;4.10;;
23304;SDS011;11821;51.456;8.844;2023-04-15T12:19:08;3.72;;;3.42;;
23304;SDS011;11821;51.456;8.844;2023-04-15T12:21:36;4.93;;;4.43;;
23304;SDS011;11821;51.456;8.844;2023-04-15T12:24:04;3.25;;;2.95;;
23304;SDS011;11821;51.456;8.844;2023-04-15T12:26:33;3.25;;;2.95;;
23304;SDS011;11821;51.456;8.844;2023-04-15T12:31:26;2.50;;;2.30;;
23304;SDS011;11821;51.456;8.844;2023-04-15T12:33:57;2.72;;;2.45;;
23304;SDS011;11821;51.456;8.844;2023-04-15T12:36:24;2.35;;;2.20;;
23304;SDS011;11821;51.456;8.844;2023-04-15T12:38:50;2.53;;;2.33;;
23304;SDS011;11821;51.456;8.844;2023-04-15T12:41:17;2.10;;;1.95;;
23304;SDS011;11821;51.456;8.844;2023-04-15T12:43:45;2.88;;;2.67;;
23304;SDS011;11821;51.456;8.844;2023-04-15T12:46:12;3.65;;;3.28;;
23304;SDS011;11821;51.456;8.844;2023-04-15T12:48:40;3.55;;;2.42;;
23304;SDS011;11821;51.456;8.844;2023-04-15T12:51:06;5.13;;;4.72;;
23304;SDS011;11821;51.456;8.844;2023-04-15T12:53:33;16.70;;;14.40;;
23304;SDS011;11821;51.456;8.844;2023-04-15T12:56:00;2.38;;;2.17;;
23304;SDS011;11821;51.456;8.844;2023-04-15T12:58:26;3.55;;;3.25;;
23304;SDS011;11821;51.456;8.844;2023-04-15T13:00:53;1.75;;;1.65;;
23304;SDS011;11821;51.456;8.844;2023-04-15T13:03:19;2.70;;;2.50;;
23304;SDS011;11821;51.456;8.844;2023-04-15T13:05:46;3.47;;;3.03;;
23304;SDS011;11821;51.456;8.844;2023-04-15T13:08:13;2.80;;;2.60;;
23304;SDS011;11821;51.456;8.844;2023-04-15T13:10:40;2.42;;;2.22;;
23304;SDS011;11821;51.456;8.844;2023-04-15T13:13:07;2.17;;;1.98;;
23304;SDS011;11821;51.456;8.844;2023-04-15T13:15:33;3.90;;;3.22;;
23304;SDS011;11821;51.456;8.844;2023-04-15T13:18:00;3.25;;;2.95;;
23304;SDS011;11821;51.456;8.844;2023-04-15T13:20:27;2.28;;;2.08;;
23304;SDS011;11821;51.456;8.844;2023-04-15T13:22:53;1.50;;;1.40;;
23304;SDS011;11821;51.456;8.844;2023-04-15T13:25:20;1.20;;;1.10;;
23304;SDS011;11821;51.456;8.844;2023-04-15T13:27:47;1.10;;;1.00;;
23304;SDS011;11821;51.456;8.844;2023-04-15T13:30:13;1.23;;;1.13;;
23304;SDS011;11821;51.456;8.844;2023-04-15T13:32:40;1.23;;;1.10;;
23304;SDS011;11821;51.456;8.844;2023-04-15T13:35:07;1.70;;;1.60;;
23304;SDS011;11821;51.456;8.844;2023-04-15T13:37:33;4.05;;;3.75;;
23304;SDS011;11821;51.456;8.844;2023-04-15T13:40:00;1.95;;;1.75;;
23304;SDS011;11821;51.456;8.844;2023-04-15T13:42:27;3.28;;;2.97;;
23304;SDS011;11821;51.456;8.844;2023-04-15T13:44:53;1.48;;;1.38;;
23304;SDS011;11821;51.456;8.844;2023-04-15T13:47:20;1.75;;;1.65;;
23304;SDS011;11821;51.456;8.844;2023-04-15T13:49:47;0.98;;;0.90;;
23304;SDS011;11821;51.456;8.844;2023-04-15T13:52:13;1.02;;;0.93;;
23304;SDS011;11821;51.456;8.844;2023-04-15T13:54:40;1.40;;;1.30;;
23304;SDS011;11821;51.456;8.844;2023-04-15T13:57:07;2.22;;;1.30;;
23304;SDS011;11821;51.456;8.844;2023-04-15T13:59:33;1.27;;;1.17;;
23304;SDS011;11821;51.456;8.844;2023-04-15T14:02:00;2.38;;;2.17;;
23304;SDS011;11821;51.456;8.844;2023-04-15T14:04:27;1.85;;;1.75;;
23304;SDS011;11821;51.456;8.844;2023-04-15T14:06:53;2.30;;;2.10;;
23304;SDS011;11821;51.456;8.844;2023-04-15T14:09:20;2.20;;;2.10;;
23304;SDS011;11821;51.456;8.844;2023-04-15T14:11:51;3.17;;;2.97;;
23304;SDS011;11821;51.456;8.844;2023-04-15T14:14:18;2.50;;;2.30;;
23304;SDS011;11821;51.456;8.844;2023-04-15T14:16:44;3.70;;;3.40;;
23304;SDS011;11821;51.456;8.844;2023-04-15T14:19:13;4.85;;;4.20;;
23304;SDS011;11821;51.456;8.844;2023-04-15T14:21:39;3.50;;;3.20;;
23304;SDS011;11821;51.456;8.844;2023-04-15T14:24:06;3.28;;;2.85;;
23304;SDS011;11821;51.456;8.844;2023-04-15T14:26:32;3.03;;;2.83;;
23304;SDS011;11821;51.456;8.844;2023-04-15T14:28:59;3.25;;;3.03;;
23304;SDS011;11821;51.456;8.844;2023-04-15T14:31:26;3.33;;;3.03;;
23304;SDS011;11821;51.456;8.844;2023-04-15T14:33:52;2.55;;;2.35;;
23304;SDS011;11821;51.456;8.844;2023-04-15T14:36:19;2.78;;;2.50;;
23304;SDS011;11821;51.456;8.844;2023-04-15T14:38:45;3.20;;;2.90;;
23304;SDS011;11821;51.456;8.844;2023-04-15T14:41:12;2.50;;;2.30;;
23304;SDS011;11821;51.456;8.844;2023-04-15T14:43:39;3.72;;;2.10;;
23304;SDS011;11821;51.456;8.844;2023-04-15T14:46:05;2.15;;;2.05;;
23304;SDS011;11821;51.456;8.844;2023-04-15T14:48:32;1.55;;;1.45;;
23304;SDS011;11821;51.456;8.844;2023-04-15T14:50:59;1.85;;;1.75;;
23304;SDS011;11821;51.456;8.844;2023-04-15T14:53:26;2.13;;;1.92;;